Terminal Aerodrome Forecast
Issued by NWS

Home | Current Version | Previous Version | Text Only | Print | Product List | Glossary On
Versions: 1 2 3 4 5 6 7 8 9 10 11 12 13
000
FTUS46 KSEW 222330
TAFBLI
TAF
KBLI 222330Z 2300/2324 17012KT P6SM SKC
     FM231300 17007KT P6SM OVC020
     FM231900 18006KT P6SM SCT035 BKN100 BKN250=

USA.gov is the U.S. government's official web portal to all federal, state and local government web resources and services.